sensor_id;sensor_type;location;lat;lon;timestamp;P1;durP1;ratioP1;P2;durP2;ratioP2
71606;SDS011;60641;53.556;9.914;2023-05-10T00:02:11;6.30;;;2.40;;
71606;SDS011;60641;53.556;9.914;2023-05-10T00:04:38;5.90;;;2.60;;
71606;SDS011;60641;53.556;9.914;2023-05-10T00:07:04;8.60;;;2.40;;
71606;SDS011;60641;53.556;9.914;2023-05-10T00:09:30;6.80;;;3.00;;
71606;SDS011;60641;53.556;9.914;2023-05-10T00:11:57;7.20;;;2.90;;
71606;SDS011;60641;53.556;9.914;2023-05-10T00:14:24;8.70;;;2.80;;
71606;SDS011;60641;53.556;9.914;2023-05-10T00:16:50;6.90;;;2.80;;
71606;SDS011;60641;53.556;9.914;2023-05-10T00:19:17;7.30;;;2.60;;
71606;SDS011;60641;53.556;9.914;2023-05-10T00:21:43;6.50;;;2.60;;
71606;SDS011;60641;53.556;9.914;2023-05-10T00:24:10;8.00;;;2.80;;
71606;SDS011;60641;53.556;9.914;2023-05-10T00:26:36;6.30;;;2.60;;
71606;SDS011;60641;53.556;9.914;2023-05-10T00:29:03;9.00;;;3.00;;
71606;SDS011;60641;53.556;9.914;2023-05-10T00:31:29;6.70;;;3.00;;
71606;SDS011;60641;53.556;9.914;2023-05-10T00:33:56;7.10;;;2.70;;
71606;SDS011;60641;53.556;9.914;2023-05-10T00:36:22;7.20;;;3.20;;
71606;SDS011;60641;53.556;9.914;2023-05-10T00:38:48;7.70;;;3.20;;
71606;SDS011;60641;53.556;9.914;2023-05-10T00:41:15;9.90;;;2.90;;
71606;SDS011;60641;53.556;9.914;2023-05-10T00:43:41;12.70;;;3.50;;
71606;SDS011;60641;53.556;9.914;2023-05-10T00:46:08;6.40;;;2.30;;
71606;SDS011;60641;53.556;9.914;2023-05-10T00:48:34;8.90;;;3.00;;
71606;SDS011;60641;53.556;9.914;2023-05-10T00:51:01;7.50;;;2.50;;
71606;SDS011;60641;53.556;9.914;2023-05-10T00:53:28;7.30;;;2.80;;
71606;SDS011;60641;53.556;9.914;2023-05-10T00:55:57;8.70;;;3.10;;
71606;SDS011;60641;53.556;9.914;2023-05-10T00:58:23;7.30;;;3.10;;
71606;SDS011;60641;53.556;9.914;2023-05-10T01:00:54;7.90;;;2.80;;
71606;SDS011;60641;53.556;9.914;2023-05-10T01:03:22;7.80;;;3.30;;
71606;SDS011;60641;53.556;9.914;2023-05-10T01:05:48;6.00;;;2.60;;
71606;SDS011;60641;53.556;9.914;2023-05-10T01:08:15;9.30;;;3.20;;
71606;SDS011;60641;53.556;9.914;2023-05-10T01:10:42;6.70;;;2.70;;
71606;SDS011;60641;53.556;9.914;2023-05-10T01:13:09;6.90;;;2.70;;
71606;SDS011;60641;53.556;9.914;2023-05-10T01:15:35;10.20;;;3.30;;
71606;SDS011;60641;53.556;9.914;2023-05-10T01:18:02;9.60;;;2.80;;
71606;SDS011;60641;53.556;9.914;2023-05-10T01:20:32;8.50;;;3.00;;
71606;SDS011;60641;53.556;9.914;2023-05-10T01:26:22;12.00;;;3.50;;
71606;SDS011;60641;53.556;9.914;2023-05-10T01:29:06;10.50;;;3.40;;
71606;SDS011;60641;53.556;9.914;2023-05-10T01:34:35;7.20;;;2.10;;
71606;SDS011;60641;53.556;9.914;2023-05-10T01:37:05;8.50;;;3.20;;
71606;SDS011;60641;53.556;9.914;2023-05-10T01:42:17;8.80;;;3.30;;
71606;SDS011;60641;53.556;9.914;2023-05-10T01:44:54;6.80;;;3.20;;
71606;SDS011;60641;53.556;9.914;2023-05-10T01:47:35;6.10;;;2.50;;
71606;SDS011;60641;53.556;9.914;2023-05-10T01:50:04;8.90;;;2.90;;
71606;SDS011;60641;53.556;9.914;2023-05-10T01:52:36;8.30;;;3.00;;
71606;SDS011;60641;53.556;9.914;2023-05-10T01:55:05;10.00;;;3.50;;
71606;SDS011;60641;53.556;9.914;2023-05-10T01:57:34;7.50;;;3.70;;
71606;SDS011;60641;53.556;9.914;2023-05-10T02:00:02;7.80;;;2.80;;
71606;SDS011;60641;53.556;9.914;2023-05-10T02:02:33;6.90;;;2.80;;
71606;SDS011;60641;53.556;9.914;2023-05-10T02:05:04;6.30;;;2.40;;
71606;SDS011;60641;53.556;9.914;2023-05-10T02:07:32;8.70;;;3.10;;
71606;SDS011;60641;53.556;9.914;2023-05-10T02:10:01;9.90;;;3.00;;
71606;SDS011;60641;53.556;9.914;2023-05-10T02:12:29;10.00;;;3.40;;
71606;SDS011;60641;53.556;9.914;2023-05-10T02:14:59;7.70;;;3.40;;
71606;SDS011;60641;53.556;9.914;2023-05-10T02:17:25;8.10;;;3.30;;
71606;SDS011;60641;53.556;9.914;2023-05-10T02:19:52;11.40;;;3.50;;
71606;SDS011;60641;53.556;9.914;2023-05-10T02:22:19;9.00;;;3.30;;
71606;SDS011;60641;53.556;9.914;2023-05-10T02:24:47;5.80;;;2.50;;
71606;SDS011;60641;53.556;9.914;2023-05-10T02:27:14;7.90;;;3.20;;
71606;SDS011;60641;53.556;9.914;2023-05-10T02:29:41;4.90;;;2.00;;
71606;SDS011;60641;53.556;9.914;2023-05-10T02:32:08;8.50;;;3.10;;
71606;SDS011;60641;53.556;9.914;2023-05-10T02:34:36;6.80;;;2.70;;
71606;SDS011;60641;53.556;9.914;2023-05-10T02:37:03;7.70;;;3.10;;
71606;SDS011;60641;53.556;9.914;2023-05-10T02:39:30;10.90;;;3.30;;
71606;SDS011;60641;53.556;9.914;2023-05-10T02:41:57;8.10;;;3.20;;
71606;SDS011;60641;53.556;9.914;2023-05-10T02:44:24;7.80;;;3.20;;
71606;SDS011;60641;53.556;9.914;2023-05-10T02:46:53;9.10;;;3.30;;
71606;SDS011;60641;53.556;9.914;2023-05-10T02:49:22;8.00;;;2.80;;
71606;SDS011;60641;53.556;9.914;2023-05-10T02:51:49;10.60;;;3.50;;
71606;SDS011;60641;53.556;9.914;2023-05-10T02:54:22;10.50;;;3.60;;
71606;SDS011;60641;53.556;9.914;2023-05-10T02:56:51;6.80;;;2.60;;
71606;SDS011;60641;53.556;9.914;2023-05-10T02:59:21;9.00;;;3.20;;
71606;SDS011;60641;53.556;9.914;2023-05-10T03:01:48;8.50;;;3.30;;
71606;SDS011;60641;53.556;9.914;2023-05-10T03:04:14;9.30;;;3.10;;
71606;SDS011;60641;53.556;9.914;2023-05-10T03:06:41;8.50;;;3.40;;
71606;SDS011;60641;53.556;9.914;2023-05-10T03:09:07;8.00;;;3.20;;
71606;SDS011;60641;53.556;9.914;2023-05-10T03:17:00;7.70;;;3.00;;
71606;SDS011;60641;53.556;9.914;2023-05-10T03:19:32;8.10;;;3.20;;
71606;SDS011;60641;53.556;9.914;2023-05-10T03:22:08;8.60;;;3.50;;
71606;SDS011;60641;53.556;9.914;2023-05-10T03:24:36;9.70;;;3.60;;
71606;SDS011;60641;53.556;9.914;2023-05-10T03:27:03;6.80;;;2.60;;
71606;SDS011;60641;53.556;9.914;2023-05-10T03:29:30;7.40;;;3.30;;
71606;SDS011;60641;53.556;9.914;2023-05-10T03:31:58;9.30;;;3.40;;
71606;SDS011;60641;53.556;9.914;2023-05-10T03:34:25;9.10;;;3.50;;
71606;SDS011;60641;53.556;9.914;2023-05-10T03:36:52;9.10;;;3.80;;
71606;SDS011;60641;53.556;9.914;2023-05-10T03:39:18;8.30;;;3.30;;
71606;SDS011;60641;53.556;9.914;2023-05-10T03:41:45;13.00;;;3.90;;
71606;SDS011;60641;53.556;9.914;2023-05-10T03:44:12;8.60;;;3.70;;
71606;SDS011;60641;53.556;9.914;2023-05-10T03:46:38;7.40;;;2.80;;
71606;SDS011;60641;53.556;9.914;2023-05-10T03:49:04;7.70;;;3.30;;
71606;SDS011;60641;53.556;9.914;2023-05-10T03:51:31;11.60;;;3.80;;
71606;SDS011;60641;53.556;9.914;2023-05-10T03:53:58;10.60;;;2.90;;
71606;SDS011;60641;53.556;9.914;2023-05-10T03:56:24;8.20;;;3.30;;
71606;SDS011;60641;53.556;9.914;2023-05-10T03:58:51;9.10;;;3.10;;
71606;SDS011;60641;53.556;9.914;2023-05-10T04:01:17;9.30;;;3.60;;
71606;SDS011;60641;53.556;9.914;2023-05-10T04:03:44;7.80;;;3.10;;
71606;SDS011;60641;53.556;9.914;2023-05-10T04:06:10;7.60;;;3.40;;
71606;SDS011;60641;53.556;9.914;2023-05-10T04:08:37;13.60;;;3.60;;
71606;SDS011;60641;53.556;9.914;2023-05-10T04:11:05;9.80;;;3.50;;
71606;SDS011;60641;53.556;9.914;2023-05-10T04:13:32;6.80;;;2.90;;
71606;SDS011;60641;53.556;9.914;2023-05-10T04:15:59;9.50;;;3.40;;
71606;SDS011;60641;53.556;9.914;2023-05-10T04:18:26;11.20;;;3.20;;
71606;SDS011;60641;53.556;9.914;2023-05-10T04:20:52;7.50;;;3.30;;
71606;SDS011;60641;53.556;9.914;2023-05-10T04:23:19;10.10;;;3.50;;
71606;SDS011;60641;53.556;9.914;2023-05-10T04:25:45;8.80;;;3.00;;
71606;SDS011;60641;53.556;9.914;2023-05-10T04:28:12;6.60;;;2.30;;
71606;SDS011;60641;53.556;9.914;2023-05-10T04:30:38;6.90;;;2.70;;
71606;SDS011;60641;53.556;9.914;2023-05-10T04:33:05;8.10;;;2.80;;
71606;SDS011;60641;53.556;9.914;2023-05-10T04:35:31;13.10;;;3.70;;
71606;SDS011;60641;53.556;9.914;2023-05-10T04:37:57;9.30;;;3.50;;
71606;SDS011;60641;53.556;9.914;2023-05-10T04:40:24;7.30;;;3.40;;
71606;SDS011;60641;53.556;9.914;2023-05-10T04:42:50;8.00;;;3.30;;
71606;SDS011;60641;53.556;9.914;2023-05-10T04:45:17;9.30;;;3.10;;
71606;SDS011;60641;53.556;9.914;2023-05-10T04:47:44;6.30;;;2.70;;
71606;SDS011;60641;53.556;9.914;2023-05-10T04:50:10;8.80;;;3.40;;
71606;SDS011;60641;53.556;9.914;2023-05-10T04:52:36;8.90;;;3.20;;
71606;SDS011;60641;53.556;9.914;2023-05-10T04:55:03;8.50;;;3.40;;
71606;SDS011;60641;53.556;9.914;2023-05-10T04:57:30;8.30;;;3.40;;
71606;SDS011;60641;53.556;9.914;2023-05-10T04:59:57;10.30;;;4.80;;
71606;SDS011;60641;53.556;9.914;2023-05-10T05:02:23;9.40;;;3.40;;
71606;SDS011;60641;53.556;9.914;2023-05-10T05:04:50;7.50;;;3.40;;
71606;SDS011;60641;53.556;9.914;2023-05-10T05:07:17;8.40;;;3.30;;
71606;SDS011;60641;53.556;9.914;2023-05-10T05:09:43;6.50;;;3.20;;
71606;SDS011;60641;53.556;9.914;2023-05-10T05:12:09;7.70;;;3.30;;
71606;SDS011;60641;53.556;9.914;2023-05-10T05:14:40;9.70;;;3.10;;
71606;SDS011;60641;53.556;9.914;2023-05-10T05:17:07;10.50;;;3.10;;
71606;SDS011;60641;53.556;9.914;2023-05-10T05:19:34;9.40;;;3.50;;
71606;SDS011;60641;53.556;9.914;2023-05-10T05:22:00;7.30;;;2.80;;
71606;SDS011;60641;53.556;9.914;2023-05-10T05:24:27;8.20;;;3.50;;
71606;SDS011;60641;53.556;9.914;2023-05-10T05:26:53;8.10;;;3.60;;
71606;SDS011;60641;53.556;9.914;2023-05-10T05:29:20;7.60;;;3.70;;
71606;SDS011;60641;53.556;9.914;2023-05-10T05:31:46;8.90;;;3.40;;
71606;SDS011;60641;53.556;9.914;2023-05-10T05:34:13;8.80;;;3.40;;
71606;SDS011;60641;53.556;9.914;2023-05-10T05:36:39;9.30;;;3.60;;
71606;SDS011;60641;53.556;9.914;2023-05-10T05:39:06;8.70;;;3.40;;
71606;SDS011;60641;53.556;9.914;2023-05-10T05:41:32;7.50;;;3.30;;
71606;SDS011;60641;53.556;9.914;2023-05-10T05:43:59;7.90;;;3.50;;
71606;SDS011;60641;53.556;9.914;2023-05-10T05:46:26;8.60;;;3.30;;
71606;SDS011;60641;53.556;9.914;2023-05-10T05:48:52;8.20;;;3.40;;
71606;SDS011;60641;53.556;9.914;2023-05-10T05:51:19;10.30;;;3.80;;
71606;SDS011;60641;53.556;9.914;2023-05-10T05:53:45;9.40;;;4.50;;
71606;SDS011;60641;53.556;9.914;2023-05-10T05:56:12;9.30;;;3.50;;
71606;SDS011;60641;53.556;9.914;2023-05-10T05:58:38;8.00;;;3.70;;
71606;SDS011;60641;53.556;9.914;2023-05-10T06:01:05;9.60;;;3.40;;
71606;SDS011;60641;53.556;9.914;2023-05-10T06:03:31;8.60;;;3.20;;
71606;SDS011;60641;53.556;9.914;2023-05-10T06:05:58;9.50;;;3.40;;
71606;SDS011;60641;53.556;9.914;2023-05-10T06:08:25;8.80;;;3.50;;
71606;SDS011;60641;53.556;9.914;2023-05-10T06:10:51;8.40;;;3.80;;
71606;SDS011;60641;53.556;9.914;2023-05-10T06:13:18;7.10;;;3.50;;
71606;SDS011;60641;53.556;9.914;2023-05-10T06:15:44;7.50;;;3.50;;
71606;SDS011;60641;53.556;9.914;2023-05-10T06:18:11;8.60;;;3.30;;
71606;SDS011;60641;53.556;9.914;2023-05-10T06:20:37;7.70;;;3.20;;
71606;SDS011;60641;53.556;9.914;2023-05-10T06:23:04;8.90;;;3.60;;
71606;SDS011;60641;53.556;9.914;2023-05-10T06:25:30;10.00;;;3.60;;
71606;SDS011;60641;53.556;9.914;2023-05-10T06:27:57;11.20;;;3.50;;
71606;SDS011;60641;53.556;9.914;2023-05-10T06:30:24;6.90;;;3.30;;
71606;SDS011;60641;53.556;9.914;2023-05-10T06:32:54;9.10;;;3.90;;
71606;SDS011;60641;53.556;9.914;2023-05-10T06:35:21;9.50;;;4.10;;
71606;SDS011;60641;53.556;9.914;2023-05-10T06:37:48;8.20;;;3.80;;
71606;SDS011;60641;53.556;9.914;2023-05-10T06:40:15;9.00;;;3.60;;
71606;SDS011;60641;53.556;9.914;2023-05-10T06:42:42;8.80;;;4.00;;
71606;SDS011;60641;53.556;9.914;2023-05-10T06:45:08;13.80;;;5.20;;
71606;SDS011;60641;53.556;9.914;2023-05-10T06:47:36;7.90;;;4.00;;
71606;SDS011;60641;53.556;9.914;2023-05-10T06:50:02;8.10;;;3.70;;
71606;SDS011;60641;53.556;9.914;2023-05-10T06:52:29;10.80;;;3.20;;
71606;SDS011;60641;53.556;9.914;2023-05-10T06:54:55;9.10;;;3.70;;
71606;SDS011;60641;53.556;9.914;2023-05-10T06:57:22;8.40;;;3.90;;
71606;SDS011;60641;53.556;9.914;2023-05-10T06:59:48;8.60;;;4.00;;
71606;SDS011;60641;53.556;9.914;2023-05-10T07:02:15;9.00;;;3.40;;
71606;SDS011;60641;53.556;9.914;2023-05-10T07:04:41;6.60;;;2.90;;
71606;SDS011;60641;53.556;9.914;2023-05-10T07:07:08;8.80;;;3.70;;
71606;SDS011;60641;53.556;9.914;2023-05-10T07:09:34;8.90;;;3.80;;
71606;SDS011;60641;53.556;9.914;2023-05-10T07:12:01;9.10;;;3.60;;
71606;SDS011;60641;53.556;9.914;2023-05-10T07:14:27;7.50;;;3.50;;
71606;SDS011;60641;53.556;9.914;2023-05-10T07:16:54;8.10;;;4.10;;
71606;SDS011;60641;53.556;9.914;2023-05-10T07:19:21;9.70;;;3.50;;
71606;SDS011;60641;53.556;9.914;2023-05-10T07:21:47;8.10;;;3.60;;
71606;SDS011;60641;53.556;9.914;2023-05-10T07:24:14;9.50;;;3.50;;
71606;SDS011;60641;53.556;9.914;2023-05-10T07:26:40;9.20;;;3.80;;
71606;SDS011;60641;53.556;9.914;2023-05-10T07:29:07;9.20;;;3.40;;
71606;SDS011;60641;53.556;9.914;2023-05-10T07:31:33;7.80;;;3.40;;
71606;SDS011;60641;53.556;9.914;2023-05-10T07:34:00;7.90;;;3.60;;
71606;SDS011;60641;53.556;9.914;2023-05-10T07:36:26;8.80;;;3.50;;
71606;SDS011;60641;53.556;9.914;2023-05-10T07:38:53;10.40;;;3.80;;
71606;SDS011;60641;53.556;9.914;2023-05-10T07:41:20;8.80;;;3.40;;
71606;SDS011;60641;53.556;9.914;2023-05-10T07:43:47;7.50;;;3.20;;
71606;SDS011;60641;53.556;9.914;2023-05-10T07:46:13;9.10;;;3.70;;
71606;SDS011;60641;53.556;9.914;2023-05-10T07:48:40;8.10;;;3.60;;
71606;SDS011;60641;53.556;9.914;2023-05-10T07:51:07;9.30;;;3.60;;
71606;SDS011;60641;53.556;9.914;2023-05-10T07:53:35;8.50;;;3.50;;
71606;SDS011;60641;53.556;9.914;2023-05-10T07:58:46;9.50;;;3.50;;
71606;SDS011;60641;53.556;9.914;2023-05-10T08:01:12;8.40;;;3.80;;
71606;SDS011;60641;53.556;9.914;2023-05-10T08:03:39;10.30;;;3.90;;
71606;SDS011;60641;53.556;9.914;2023-05-10T08:06:05;8.60;;;3.50;;
71606;SDS011;60641;53.556;9.914;2023-05-10T08:08:32;10.00;;;3.40;;
71606;SDS011;60641;53.556;9.914;2023-05-10T08:10:58;8.00;;;3.30;;
71606;SDS011;60641;53.556;9.914;2023-05-10T08:13:25;8.70;;;3.50;;
71606;SDS011;60641;53.556;9.914;2023-05-10T08:15:51;11.00;;;3.60;;
71606;SDS011;60641;53.556;9.914;2023-05-10T08:18:19;8.90;;;3.40;;
71606;SDS011;60641;53.556;9.914;2023-05-10T08:20:45;8.30;;;3.50;;
71606;SDS011;60641;53.556;9.914;2023-05-10T08:23:12;6.50;;;3.10;;
71606;SDS011;60641;53.556;9.914;2023-05-10T08:25:39;6.70;;;3.50;;
71606;SDS011;60641;53.556;9.914;2023-05-10T08:28:05;7.70;;;3.40;;
71606;SDS011;60641;53.556;9.914;2023-05-10T08:30:32;13.60;;;3.50;;
71606;SDS011;60641;53.556;9.914;2023-05-10T08:32:58;10.30;;;4.00;;
71606;SDS011;60641;53.556;9.914;2023-05-10T08:35:25;10.30;;;4.50;;
71606;SDS011;60641;53.556;9.914;2023-05-10T08:37:51;8.20;;;3.60;;
71606;SDS011;60641;53.556;9.914;2023-05-10T08:40:18;7.00;;;3.50;;
71606;SDS011;60641;53.556;9.914;2023-05-10T08:43:04;10.50;;;3.80;;
71606;SDS011;60641;53.556;9.914;2023-05-10T08:45:33;9.80;;;4.20;;
71606;SDS011;60641;53.556;9.914;2023-05-10T08:48:07;9.70;;;3.80;;
71606;SDS011;60641;53.556;9.914;2023-05-10T08:50:38;12.50;;;3.50;;
71606;SDS011;60641;53.556;9.914;2023-05-10T08:53:06;7.20;;;3.60;;
71606;SDS011;60641;53.556;9.914;2023-05-10T08:55:36;9.60;;;3.50;;
71606;SDS011;60641;53.556;9.914;2023-05-10T08:58:04;8.90;;;3.40;;
71606;SDS011;60641;53.556;9.914;2023-05-10T09:00:32;8.10;;;3.70;;
71606;SDS011;60641;53.556;9.914;2023-05-10T09:02:58;8.60;;;4.00;;
71606;SDS011;60641;53.556;9.914;2023-05-10T09:05:25;7.40;;;3.60;;
71606;SDS011;60641;53.556;9.914;2023-05-10T09:07:52;7.90;;;3.80;;
71606;SDS011;60641;53.556;9.914;2023-05-10T09:10:19;8.40;;;3.70;;
71606;SDS011;60641;53.556;9.914;2023-05-10T09:12:46;7.00;;;3.40;;
71606;SDS011;60641;53.556;9.914;2023-05-10T09:15:14;8.80;;;3.90;;
71606;SDS011;60641;53.556;9.914;2023-05-10T09:17:42;7.70;;;3.80;;
71606;SDS011;60641;53.556;9.914;2023-05-10T09:20:08;8.10;;;4.00;;
71606;SDS011;60641;53.556;9.914;2023-05-10T09:22:35;11.40;;;4.50;;
71606;SDS011;60641;53.556;9.914;2023-05-10T09:25:15;11.80;;;4.40;;
71606;SDS011;60641;53.556;9.914;2023-05-10T09:27:46;10.50;;;4.80;;
71606;SDS011;60641;53.556;9.914;2023-05-10T09:30:35;9.50;;;4.10;;
71606;SDS011;60641;53.556;9.914;2023-05-10T09:33:00;8.70;;;3.40;;
71606;SDS011;60641;53.556;9.914;2023-05-10T09:35:28;10.20;;;3.60;;
71606;SDS011;60641;53.556;9.914;2023-05-10T09:37:58;9.00;;;3.50;;
71606;SDS011;60641;53.556;9.914;2023-05-10T09:40:27;10.90;;;4.00;;
71606;SDS011;60641;53.556;9.914;2023-05-10T09:42:56;14.70;;;4.40;;
71606;SDS011;60641;53.556;9.914;2023-05-10T09:45:24;8.20;;;4.00;;
71606;SDS011;60641;53.556;9.914;2023-05-10T09:47:52;7.90;;;4.20;;
71606;SDS011;60641;53.556;9.914;2023-05-10T09:50:20;9.10;;;4.40;;
71606;SDS011;60641;53.556;9.914;2023-05-10T09:52:50;11.00;;;4.10;;
71606;SDS011;60641;53.556;9.914;2023-05-10T09:55:40;9.20;;;4.20;;
71606;SDS011;60641;53.556;9.914;2023-05-10T09:58:10;9.50;;;4.40;;
71606;SDS011;60641;53.556;9.914;2023-05-10T10:00:38;10.70;;;4.20;;
71606;SDS011;60641;53.556;9.914;2023-05-10T10:03:11;9.60;;;4.20;;
71606;SDS011;60641;53.556;9.914;2023-05-10T10:05:39;9.50;;;4.30;;
71606;SDS011;60641;53.556;9.914;2023-05-10T10:08:07;10.50;;;4.30;;
71606;SDS011;60641;53.556;9.914;2023-05-10T10:10:34;9.60;;;4.40;;
71606;SDS011;60641;53.556;9.914;2023-05-10T10:13:00;10.70;;;4.70;;
71606;SDS011;60641;53.556;9.914;2023-05-10T10:15:27;9.60;;;4.10;;
71606;SDS011;60641;53.556;9.914;2023-05-10T10:17:54;14.30;;;4.80;;
71606;SDS011;60641;53.556;9.914;2023-05-10T10:20:21;9.40;;;4.60;;
71606;SDS011;60641;53.556;9.914;2023-05-10T10:22:48;12.20;;;4.20;;
71606;SDS011;60641;53.556;9.914;2023-05-10T10:25:16;12.10;;;4.70;;
71606;SDS011;60641;53.556;9.914;2023-05-10T10:30:27;9.50;;;4.90;;
71606;SDS011;60641;53.556;9.914;2023-05-10T10:33:06;12.10;;;4.90;;
71606;SDS011;60641;53.556;9.914;2023-05-10T10:35:40;9.70;;;4.50;;
71606;SDS011;60641;53.556;9.914;2023-05-10T10:38:07;9.10;;;4.60;;
71606;SDS011;60641;53.556;9.914;2023-05-10T10:40:34;9.70;;;5.00;;
71606;SDS011;60641;53.556;9.914;2023-05-10T10:46:09;12.50;;;4.80;;
71606;SDS011;60641;53.556;9.914;2023-05-10T10:48:37;12.70;;;4.50;;
71606;SDS011;60641;53.556;9.914;2023-05-10T10:51:04;13.10;;;4.90;;
71606;SDS011;60641;53.556;9.914;2023-05-10T10:53:30;10.60;;;5.20;;
71606;SDS011;60641;53.556;9.914;2023-05-10T10:58:36;9.60;;;4.80;;
71606;SDS011;60641;53.556;9.914;2023-05-10T11:01:10;12.40;;;6.10;;
71606;SDS011;60641;53.556;9.914;2023-05-10T11:03:37;10.10;;;5.30;;
71606;SDS011;60641;53.556;9.914;2023-05-10T11:06:04;9.90;;;4.80;;
71606;SDS011;60641;53.556;9.914;2023-05-10T11:08:31;9.30;;;5.10;;
71606;SDS011;60641;53.556;9.914;2023-05-10T11:15:55;12.70;;;5.10;;
71606;SDS011;60641;53.556;9.914;2023-05-10T11:18:26;9.10;;;4.80;;
71606;SDS011;60641;53.556;9.914;2023-05-10T11:20:58;9.80;;;5.10;;
71606;SDS011;60641;53.556;9.914;2023-05-10T11:23:32;15.30;;;5.30;;
71606;SDS011;60641;53.556;9.914;2023-05-10T11:26:14;10.90;;;5.00;;
71606;SDS011;60641;53.556;9.914;2023-05-10T11:28:44;9.60;;;5.10;;
71606;SDS011;60641;53.556;9.914;2023-05-10T11:31:15;11.90;;;5.60;;
71606;SDS011;60641;53.556;9.914;2023-05-10T11:33:51;11.80;;;6.20;;
71606;SDS011;60641;53.556;9.914;2023-05-10T11:36:32;10.50;;;6.10;;
71606;SDS011;60641;53.556;9.914;2023-05-10T11:38:59;9.10;;;5.20;;
71606;SDS011;60641;53.556;9.914;2023-05-10T11:41:27;9.80;;;4.90;;
71606;SDS011;60641;53.556;9.914;2023-05-10T11:43:55;8.70;;;4.90;;
71606;SDS011;60641;53.556;9.914;2023-05-10T11:46:23;9.70;;;5.40;;
71606;SDS011;60641;53.556;9.914;2023-05-10T11:48:54;10.70;;;5.30;;
71606;SDS011;60641;53.556;9.914;2023-05-10T11:51:23;10.30;;;5.70;;
71606;SDS011;60641;53.556;9.914;2023-05-10T11:53:52;9.40;;;4.80;;
71606;SDS011;60641;53.556;9.914;2023-05-10T11:56:19;10.70;;;5.20;;
71606;SDS011;60641;53.556;9.914;2023-05-10T11:58:54;13.60;;;5.50;;
71606;SDS011;60641;53.556;9.914;2023-05-10T12:01:22;9.00;;;4.60;;
71606;SDS011;60641;53.556;9.914;2023-05-10T12:03:53;11.50;;;4.50;;
71606;SDS011;60641;53.556;9.914;2023-05-10T12:06:20;8.40;;;4.40;;
71606;SDS011;60641;53.556;9.914;2023-05-10T12:08:47;12.70;;;4.70;;
71606;SDS011;60641;53.556;9.914;2023-05-10T12:11:18;9.40;;;4.90;;
71606;SDS011;60641;53.556;9.914;2023-05-10T12:13:45;9.40;;;4.70;;
71606;SDS011;60641;53.556;9.914;2023-05-10T12:16:23;9.30;;;4.60;;
71606;SDS011;60641;53.556;9.914;2023-05-10T12:18:56;9.90;;;4.90;;
71606;SDS011;60641;53.556;9.914;2023-05-10T12:21:23;10.50;;;5.30;;
71606;SDS011;60641;53.556;9.914;2023-05-10T12:23:52;10.70;;;5.50;;
71606;SDS011;60641;53.556;9.914;2023-05-10T12:26:23;10.20;;;5.20;;
71606;SDS011;60641;53.556;9.914;2023-05-10T12:28:52;11.10;;;6.50;;
71606;SDS011;60641;53.556;9.914;2023-05-10T12:31:19;10.10;;;6.00;;
71606;SDS011;60641;53.556;9.914;2023-05-10T12:33:46;11.90;;;5.10;;
71606;SDS011;60641;53.556;9.914;2023-05-10T12:36:13;12.90;;;5.70;;
71606;SDS011;60641;53.556;9.914;2023-05-10T12:38:41;13.50;;;5.10;;
71606;SDS011;60641;53.556;9.914;2023-05-10T12:41:10;10.50;;;5.40;;
71606;SDS011;60641;53.556;9.914;2023-05-10T12:43:38;8.90;;;4.90;;
71606;SDS011;60641;53.556;9.914;2023-05-10T12:46:06;10.70;;;4.80;;
71606;SDS011;60641;53.556;9.914;2023-05-10T12:48:40;8.60;;;4.40;;
71606;SDS011;60641;53.556;9.914;2023-05-10T12:51:07;9.70;;;4.30;;
71606;SDS011;60641;53.556;9.914;2023-05-10T12:53:43;7.80;;;4.00;;
71606;SDS011;60641;53.556;9.914;2023-05-10T12:56:11;8.20;;;4.50;;
71606;SDS011;60641;53.556;9.914;2023-05-10T12:58:38;7.60;;;3.80;;
71606;SDS011;60641;53.556;9.914;2023-05-10T13:01:04;7.70;;;4.10;;
71606;SDS011;60641;53.556;9.914;2023-05-10T13:03:31;8.60;;;4.50;;
71606;SDS011;60641;53.556;9.914;2023-05-10T13:05:58;8.10;;;4.20;;
71606;SDS011;60641;53.556;9.914;2023-05-10T13:08:24;9.20;;;4.50;;
71606;SDS011;60641;53.556;9.914;2023-05-10T13:10:51;10.20;;;4.50;;
71606;SDS011;60641;53.556;9.914;2023-05-10T13:13:17;8.80;;;4.20;;
71606;SDS011;60641;53.556;9.914;2023-05-10T13:15:44;8.10;;;4.10;;
71606;SDS011;60641;53.556;9.914;2023-05-10T13:18:10;8.30;;;4.00;;
71606;SDS011;60641;53.556;9.914;2023-05-10T13:20:37;11.00;;;4.50;;
71606;SDS011;60641;53.556;9.914;2023-05-10T13:23:03;9.50;;;4.80;;
71606;SDS011;60641;53.556;9.914;2023-05-10T13:25:30;8.80;;;4.50;;
71606;SDS011;60641;53.556;9.914;2023-05-10T13:27:57;8.10;;;4.20;;
71606;SDS011;60641;53.556;9.914;2023-05-10T13:30:23;11.00;;;4.40;;
71606;SDS011;60641;53.556;9.914;2023-05-10T13:32:50;9.10;;;4.90;;
71606;SDS011;60641;53.556;9.914;2023-05-10T13:35:16;10.80;;;5.10;;
71606;SDS011;60641;53.556;9.914;2023-05-10T13:37:43;8.40;;;4.00;;
71606;SDS011;60641;53.556;9.914;2023-05-10T13:40:09;13.70;;;6.60;;
71606;SDS011;60641;53.556;9.914;2023-05-10T13:42:36;9.80;;;5.60;;
71606;SDS011;60641;53.556;9.914;2023-05-10T13:45:03;9.40;;;5.10;;
71606;SDS011;60641;53.556;9.914;2023-05-10T13:47:30;8.30;;;4.90;;
71606;SDS011;60641;53.556;9.914;2023-05-10T13:49:57;8.30;;;4.80;;
71606;SDS011;60641;53.556;9.914;2023-05-10T13:52:23;10.40;;;5.30;;
71606;SDS011;60641;53.556;9.914;2023-05-10T13:54:50;10.40;;;5.00;;
71606;SDS011;60641;53.556;9.914;2023-05-10T13:57:18;9.60;;;5.30;;
71606;SDS011;60641;53.556;9.914;2023-05-10T13:59:44;8.90;;;4.50;;
71606;SDS011;60641;53.556;9.914;2023-05-10T14:02:11;9.00;;;5.10;;
71606;SDS011;60641;53.556;9.914;2023-05-10T14:04:39;8.60;;;4.80;;
71606;SDS011;60641;53.556;9.914;2023-05-10T14:07:05;10.00;;;4.90;;
71606;SDS011;60641;53.556;9.914;2023-05-10T14:09:32;11.40;;;5.10;;
71606;SDS011;60641;53.556;9.914;2023-05-10T14:11:58;10.10;;;5.30;;
71606;SDS011;60641;53.556;9.914;2023-05-10T14:14:25;8.90;;;4.80;;
71606;SDS011;60641;53.556;9.914;2023-05-10T14:16:52;8.60;;;4.40;;
71606;SDS011;60641;53.556;9.914;2023-05-10T14:19:19;8.30;;;4.60;;
71606;SDS011;60641;53.556;9.914;2023-05-10T14:21:45;7.70;;;4.60;;
71606;SDS011;60641;53.556;9.914;2023-05-10T14:24:12;10.40;;;4.60;;
71606;SDS011;60641;53.556;9.914;2023-05-10T14:26:38;9.40;;;4.70;;
71606;SDS011;60641;53.556;9.914;2023-05-10T14:29:05;10.60;;;5.10;;
71606;SDS011;60641;53.556;9.914;2023-05-10T14:31:31;8.10;;;4.70;;
71606;SDS011;60641;53.556;9.914;2023-05-10T14:34:00;9.50;;;4.90;;
71606;SDS011;60641;53.556;9.914;2023-05-10T14:36:27;8.70;;;4.90;;
71606;SDS011;60641;53.556;9.914;2023-05-10T14:38:53;8.20;;;4.80;;
71606;SDS011;60641;53.556;9.914;2023-05-10T14:41:19;9.20;;;3.90;;
71606;SDS011;60641;53.556;9.914;2023-05-10T14:43:46;9.80;;;4.30;;
71606;SDS011;60641;53.556;9.914;2023-05-10T14:46:12;8.50;;;4.10;;
71606;SDS011;60641;53.556;9.914;2023-05-10T14:48:39;9.00;;;4.40;;
71606;SDS011;60641;53.556;9.914;2023-05-10T14:51:05;9.40;;;4.70;;
71606;SDS011;60641;53.556;9.914;2023-05-10T14:53:32;11.80;;;4.40;;
71606;SDS011;60641;53.556;9.914;2023-05-10T14:55:59;8.20;;;4.60;;
71606;SDS011;60641;53.556;9.914;2023-05-10T14:58:27;7.50;;;4.20;;
71606;SDS011;60641;53.556;9.914;2023-05-10T15:00:53;8.00;;;4.20;;
71606;SDS011;60641;53.556;9.914;2023-05-10T15:03:20;8.10;;;4.40;;
71606;SDS011;60641;53.556;9.914;2023-05-10T15:05:47;9.20;;;4.90;;
71606;SDS011;60641;53.556;9.914;2023-05-10T15:08:13;7.70;;;4.50;;
71606;SDS011;60641;53.556;9.914;2023-05-10T15:10:40;9.60;;;4.50;;
71606;SDS011;60641;53.556;9.914;2023-05-10T15:13:06;8.00;;;4.30;;
71606;SDS011;60641;53.556;9.914;2023-05-10T15:15:33;7.90;;;4.00;;
71606;SDS011;60641;53.556;9.914;2023-05-10T15:17:59;8.00;;;4.30;;
71606;SDS011;60641;53.556;9.914;2023-05-10T15:20:26;10.80;;;6.00;;